Terminal Aerodrome Forecast
Issued by NWS

Home | Current Version | Previous Version | Text Only | Print | Product List | Glossary On
Versions: 1 2 3 4 5 6 7 8 9 10 11 12 13 14 15 16
000
FTUS45 KBOI 052338
TAFTWF
TAF
KTWF 052338Z 0600/0624 VRB06KT P6SM FEW050
     FM060600 14007KT P6SM BKN200
     FM061600 11008KT P6SM VCSH SCT050 OVC100
     FM061800 11008KT 5SM -SHSN SCT015 OVC025
     FM062000 30008KT 5SM -SHSN SCT010 OVC020=

USA.gov is the U.S. government's official web portal to all federal, state and local government web resources and services.